Asbest, Russia
Current Conditions -  °F | °C
As of 9:00 AM on Wednesday 28 Jan 2015 (Local Time) from USSS Reporting Station
Clear Clear  
Wind Chill: -2°   Ceiling: Unl
Heat Index:   Visibility: 6mi
Dew Point: -9°   Wind: 7mph
Humidity: 44%   Direction: 200°SSW
Pressure: 30.3"   Gusts: NA
Location:  57.02°N, 61.46°E
Report Text: USSS 280400Z 20003MPS CAVOK M13/M23 Q1026 76820350 NOSIG RMKQFE749
Loading
Personal Weather Stations






























Interactive Weather Map New forecast layout! Learn more

10-Day Weather Forecast

Advertisements
Track Severe Weather on mobile